createdAt,value
2023-03-28T00:01:45.231Z,2.60
2023-03-28T00:04:12.982Z,2.70
2023-03-28T00:06:41.563Z,2.60
2023-03-28T00:09:09.220Z,2.60
2023-03-28T00:11:35.896Z,2.50
2023-03-28T00:14:03.404Z,2.50
2023-03-28T00:16:33.877Z,2.50
2023-03-28T00:19:02.371Z,2.40
2023-03-28T00:21:32.298Z,2.40
2023-03-28T00:24:04.357Z,2.40
2023-03-28T00:26:34.332Z,2.30
2023-03-28T00:29:02.888Z,2.30
2023-03-28T00:31:30.979Z,2.20
2023-03-28T00:33:58.099Z,2.20
2023-03-28T00:36:29.586Z,2.10
2023-03-28T00:38:57.822Z,2.10
2023-03-28T00:41:26.617Z,2.10
2023-03-28T00:43:55.147Z,2.20
2023-03-28T00:46:26.871Z,2.20
2023-03-28T00:48:57.448Z,2.20
2023-03-28T00:51:30.040Z,2.20
2023-03-28T00:53:59.924Z,2.20
2023-03-28T00:56:29.922Z,2.10
2023-03-28T00:58:58.111Z,2.10
2023-03-28T01:01:24.908Z,2.10
2023-03-28T01:04:02.267Z,2.10
2023-03-28T01:06:32.961Z,2.10
2023-03-28T01:09:04.467Z,2.10
2023-03-28T01:11:32.989Z,2.10
2023-03-28T01:14:02.473Z,2.00
2023-03-28T01:16:32.771Z,2.10
2023-03-28T01:19:03.772Z,2.00
2023-03-28T01:21:33.747Z,2.00
2023-03-28T01:24:17.340Z,2.00
2023-03-28T01:27:17.037Z,2.00
2023-03-28T01:30:22.435Z,2.00
2023-03-28T01:33:08.222Z,1.90
2023-03-28T01:35:49.601Z,1.80
2023-03-28T01:38:48.235Z,1.90
2023-03-28T01:41:23.038Z,1.80
2023-03-28T01:44:18.702Z,1.80
2023-03-28T01:47:11.156Z,1.70
2023-03-28T01:49:52.830Z,1.80
2023-03-28T01:52:28.135Z,1.70
2023-03-28T01:55:06.713Z,1.70
2023-03-28T01:57:50.865Z,1.70
2023-03-28T02:00:43.292Z,1.70
2023-03-28T02:03:21.947Z,1.60
2023-03-28T02:05:50.280Z,1.60
2023-03-28T02:08:18.848Z,1.60
2023-03-28T02:10:48.317Z,1.60
2023-03-28T02:13:19.401Z,1.60
2023-03-28T02:15:51.011Z,1.50
2023-03-28T02:18:29.585Z,1.50
2023-03-28T02:21:04.734Z,1.50
2023-03-28T02:23:44.124Z,1.50
2023-03-28T02:26:12.242Z,1.50
2023-03-28T02:28:41.467Z,1.50
2023-03-28T02:31:08.706Z,1.40
2023-03-28T02:33:37.826Z,1.40
2023-03-28T02:36:31.864Z,1.40
2023-03-28T02:39:28.110Z,1.40
2023-03-28T02:42:15.212Z,1.30
2023-03-28T02:45:18.824Z,1.30
2023-03-28T02:48:07.327Z,1.20
2023-03-28T02:50:49.180Z,1.20
2023-03-28T02:53:27.265Z,1.10
2023-03-28T02:56:04.683Z,1.10
2023-03-28T02:58:38.601Z,1.10
2023-03-28T03:01:10.504Z,1.00
2023-03-28T03:03:37.944Z,1.00
2023-03-28T03:06:05.914Z,0.90
2023-03-28T03:08:32.868Z,0.90
2023-03-28T03:10:59.638Z,0.80
2023-03-28T03:13:26.384Z,0.80
2023-03-28T03:15:56.340Z,0.80
2023-03-28T03:18:23.481Z,0.80
2023-03-28T03:20:50.359Z,0.80
2023-03-28T03:23:17.273Z,0.70
2023-03-28T03:25:45.224Z,0.70
2023-03-28T03:28:12.934Z,0.70
2023-03-28T03:30:39.595Z,0.70
2023-03-28T03:33:06.347Z,0.60
2023-03-28T03:35:33.482Z,0.60
2023-03-28T03:38:00.871Z,0.60
2023-03-28T03:40:27.715Z,0.60
2023-03-28T03:42:54.394Z,0.60
2023-03-28T03:45:22.080Z,0.60
2023-03-28T03:47:48.741Z,0.50
2023-03-28T03:50:15.570Z,0.50
2023-03-28T03:52:42.343Z,0.50
2023-03-28T03:55:09.398Z,0.40
2023-03-28T03:57:36.723Z,0.40
2023-03-28T04:00:11.879Z,0.40
2023-03-28T04:02:39.901Z,0.40
2023-03-28T04:05:09.214Z,0.40
2023-03-28T04:07:36.465Z,0.30
2023-03-28T04:10:03.736Z,0.30
2023-03-28T04:12:30.459Z,0.30
2023-03-28T04:14:57.202Z,0.20
2023-03-28T04:17:29.770Z,0.20
2023-03-28T04:19:56.910Z,0.20
2023-03-28T04:22:23.862Z,0.20
2023-03-28T04:24:53.366Z,0.20
2023-03-28T04:27:20.154Z,0.00
2023-03-28T04:29:46.919Z,0.00
2023-03-28T04:32:13.737Z,0.00
2023-03-28T04:34:40.486Z,-0.10
2023-03-28T04:37:09.148Z,-0.10
2023-03-28T04:39:35.917Z,-0.10
2023-03-28T04:42:05.532Z,-0.10
2023-03-28T04:44:32.659Z,-0.10
2023-03-28T04:46:59.957Z,-0.10
2023-03-28T04:49:27.278Z,0.00
2023-03-28T04:51:54.018Z,-0.10
2023-03-28T04:54:21.194Z,-0.10
2023-03-28T04:56:48.267Z,-0.10
2023-03-28T04:59:16.532Z,-0.10
2023-03-28T05:01:49.189Z,-0.10
2023-03-28T05:04:19.908Z,-0.10
2023-03-28T05:06:47.640Z,-0.10
2023-03-28T05:09:15.219Z,-0.10
2023-03-28T05:11:42.782Z,-0.10
2023-03-28T05:14:09.583Z,-0.20
2023-03-28T05:16:36.410Z,-0.20
2023-03-28T05:19:03.790Z,-0.20
2023-03-28T05:21:30.583Z,-0.20
2023-03-28T05:23:57.340Z,-0.10
2023-03-28T05:26:24.025Z,-0.10
2023-03-28T05:28:50.924Z,-0.10
2023-03-28T05:31:17.774Z,-0.10
2023-03-28T05:33:44.573Z,0.00
2023-03-28T05:36:12.851Z,0.00
2023-03-28T05:38:39.654Z,0.00
2023-03-28T05:41:06.727Z,0.00
2023-03-28T05:43:33.424Z,0.00
2023-03-28T05:46:00.420Z,0.10
2023-03-28T05:48:27.243Z,0.10
2023-03-28T05:50:54.015Z,0.10
2023-03-28T05:53:20.684Z,0.20
2023-03-28T05:55:48.561Z,0.20
2023-03-28T05:58:16.121Z,0.30
2023-03-28T06:00:44.606Z,0.30
2023-03-28T06:03:16.360Z,0.30
2023-03-28T06:05:44.336Z,0.40
2023-03-28T06:08:11.771Z,0.40
2023-03-28T06:10:38.848Z,0.40
2023-03-28T06:13:05.665Z,0.40
2023-03-28T06:15:32.875Z,0.50
2023-03-28T06:17:59.703Z,0.60
2023-03-28T06:20:26.434Z,0.60
2023-03-28T06:22:53.101Z,0.60
2023-03-28T06:25:19.954Z,0.70
2023-03-28T06:27:46.671Z,0.70
2023-03-28T06:30:14.109Z,0.80
2023-03-28T06:32:41.092Z,0.90
2023-03-28T06:35:08.394Z,0.90
2023-03-28T06:37:35.065Z,1.00
2023-03-28T06:40:01.918Z,1.10
2023-03-28T06:42:28.674Z,1.20
2023-03-28T06:44:55.462Z,1.30
2023-03-28T06:47:22.332Z,1.40
2023-03-28T06:49:49.719Z,1.50
2023-03-28T06:52:16.891Z,1.60
2023-03-28T06:54:43.586Z,1.70
2023-03-28T06:57:10.470Z,1.80
2023-03-28T06:59:37.168Z,1.80
2023-03-28T07:02:03.947Z,1.90
2023-03-28T07:04:32.687Z,2.00
2023-03-28T07:06:59.420Z,2.00
2023-03-28T07:09:26.163Z,2.10
2023-03-28T07:11:53.201Z,2.20
2023-03-28T07:14:20.107Z,2.30
2023-03-28T07:16:46.803Z,2.40
2023-03-28T07:19:13.515Z,2.50
2023-03-28T07:21:40.169Z,2.60
2023-03-28T07:24:07.238Z,2.80
2023-03-28T07:26:34.043Z,2.80
2023-03-28T07:29:00.914Z,2.90
2023-03-28T07:31:27.980Z,3.00
2023-03-28T07:33:58.763Z,3.20
2023-03-28T07:36:27.617Z,3.30
2023-03-28T07:38:54.683Z,3.40
2023-03-28T07:41:22.594Z,3.50
2023-03-28T07:43:49.556Z,3.60
2023-03-28T07:46:16.391Z,3.70
2023-03-28T07:48:43.953Z,3.90
2023-03-28T07:51:11.286Z,3.90
2023-03-28T07:53:38.220Z,4.10
2023-03-28T07:56:05.829Z,4.20
2023-03-28T07:58:32.564Z,4.30
2023-03-28T08:01:08.175Z,4.50
2023-03-28T08:03:36.221Z,4.50
2023-03-28T08:06:09.419Z,4.70
2023-03-28T08:08:43.698Z,4.90
2023-03-28T08:11:13.405Z,5.10
2023-03-28T08:13:40.246Z,5.20
2023-03-28T08:16:07.491Z,5.20
2023-03-28T08:18:34.240Z,5.30
2023-03-28T08:21:03.081Z,5.30
2023-03-28T08:23:30.127Z,5.50
2023-03-28T08:26:07.399Z,5.50
2023-03-28T08:28:35.844Z,5.50
2023-03-28T08:31:09.427Z,5.50
2023-03-28T08:33:36.191Z,5.60
2023-03-28T08:36:03.170Z,5.80
2023-03-28T08:38:29.939Z,5.90
2023-03-28T08:41:18.323Z,6.00
2023-03-28T08:44:02.928Z,6.10
2023-03-28T08:46:31.890Z,6.00
2023-03-28T08:49:01.078Z,6.10
2023-03-28T08:51:35.533Z,6.20
2023-03-28T08:54:11.086Z,6.30
2023-03-28T08:56:44.949Z,6.50
2023-03-28T08:59:15.886Z,6.50
2023-03-28T09:01:44.187Z,6.70
2023-03-28T09:04:34.903Z,6.60
2023-03-28T09:07:28.701Z,6.80
2023-03-28T09:10:17.865Z,7.10
2023-03-28T09:12:50.818Z,7.10
2023-03-28T09:15:37.505Z,7.20
2023-03-28T09:18:31.763Z,7.80
2023-03-28T09:21:09.983Z,7.70
2023-03-28T09:24:01.345Z,7.80
2023-03-28T09:26:34.360Z,7.80
2023-03-28T09:29:04.082Z,7.70
2023-03-28T09:31:41.119Z,7.70
2023-03-28T09:34:12.660Z,7.80
2023-03-28T09:36:48.951Z,8.00
2023-03-28T09:39:40.103Z,8.20
2023-03-28T09:42:25.360Z,8.40
2023-03-28T09:45:02.443Z,8.50
2023-03-28T09:47:29.246Z,8.40
2023-03-28T09:50:09.578Z,8.50
2023-03-28T09:52:39.860Z,8.60
2023-03-28T09:55:16.636Z,8.70
2023-03-28T09:57:59.113Z,8.70
2023-03-28T10:00:25.967Z,8.50
2023-03-28T10:02:53.634Z,8.40
2023-03-28T10:05:40.916Z,8.50
2023-03-28T10:08:28.248Z,8.70
2023-03-28T10:11:05.036Z,8.70
2023-03-28T10:13:37.002Z,8.80
2023-03-28T10:16:06.102Z,8.80
2023-03-28T10:18:33.561Z,8.90
2023-03-28T10:21:27.423Z,9.10
2023-03-28T10:23:59.678Z,9.20
2023-03-28T10:26:27.496Z,9.30
2023-03-28T10:28:58.194Z,9.30
2023-03-28T10:31:30.654Z,9.40
2023-03-28T10:33:59.635Z,9.40
2023-03-28T10:36:31.576Z,9.20
2023-03-28T10:41:29.432Z,9.20
2023-03-28T10:43:57.243Z,9.40
2023-03-28T10:46:32.534Z,9.60
2023-03-28T10:49:04.592Z,9.60
2023-03-28T10:51:33.067Z,9.60
2023-03-28T10:54:27.770Z,9.50
2023-03-28T10:57:08.195Z,9.70
2023-03-28T10:59:41.544Z,9.70
2023-03-28T11:02:28.544Z,9.80
2023-03-28T11:05:32.647Z,10.10
2023-03-28T11:08:02.037Z,10.10
2023-03-28T11:10:42.287Z,10.00
2023-03-28T11:13:28.931Z,9.80
2023-03-28T11:16:11.042Z,10.10
2023-03-28T11:18:54.382Z,10.10
2023-03-28T11:21:46.323Z,10.10
2023-03-28T11:24:47.434Z,10.00
2023-03-28T11:27:30.816Z,10.00
2023-03-28T11:30:24.138Z,10.20
2023-03-28T11:33:14.103Z,10.30
2023-03-28T11:35:57.805Z,10.40
2023-03-28T11:38:27.100Z,10.40
2023-03-28T11:41:07.098Z,10.50
2023-03-28T11:43:39.505Z,10.40
2023-03-28T11:46:12.108Z,10.50
2023-03-28T11:48:55.747Z,10.60
2023-03-28T11:51:55.110Z,10.60
2023-03-28T11:54:32.319Z,10.30
2023-03-28T11:57:08.136Z,10.40
2023-03-28T11:59:52.657Z,10.60
2023-03-28T12:02:36.279Z,10.90
2023-03-28T12:05:07.893Z,10.80
2023-03-28T12:08:08.195Z,10.90
2023-03-28T12:10:36.672Z,11.00
2023-03-28T12:13:18.558Z,10.90
2023-03-28T12:15:53.512Z,11.10
2023-03-28T12:18:36.343Z,11.20
2023-03-28T12:21:14.829Z,10.90
2023-03-28T12:24:06.918Z,10.70
2023-03-28T12:26:48.847Z,10.60
2023-03-28T12:29:28.004Z,10.30
2023-03-28T12:32:03.255Z,10.10
2023-03-28T12:34:34.092Z,10.20
2023-03-28T12:37:12.987Z,10.30
2023-03-28T12:39:45.257Z,10.40
2023-03-28T12:42:14.431Z,10.40
2023-03-28T12:45:06.573Z,10.40
2023-03-28T12:47:38.933Z,10.40
2023-03-28T12:50:12.737Z,10.40
2023-03-28T12:52:42.263Z,10.40
2023-03-28T12:55:31.431Z,10.50
2023-03-28T12:58:43.861Z,10.30
2023-03-28T13:01:34.913Z,10.60
2023-03-28T13:04:10.250Z,10.80
2023-03-28T13:09:26.268Z,10.90
2023-03-28T13:11:53.320Z,10.90
2023-03-28T13:14:36.596Z,11.00
2023-03-28T13:17:03.221Z,11.00
2023-03-28T13:19:41.666Z,10.90
2023-03-28T13:22:30.003Z,11.00
2023-03-28T13:25:29.496Z,11.00
2023-03-28T13:27:57.582Z,11.20
2023-03-28T13:30:30.219Z,11.40
2023-03-28T13:33:19.167Z,11.50
2023-03-28T13:35:49.435Z,11.50
2023-03-28T13:38:58.250Z,11.70
2023-03-28T13:41:43.770Z,11.70
2023-03-28T13:44:20.129Z,11.80
2023-03-28T13:46:54.137Z,11.90
2023-03-28T13:49:23.529Z,12.00
2023-03-28T13:51:58.566Z,12.00
2023-03-28T13:54:28.257Z,12.00
2023-03-28T13:57:02.120Z,11.90
2023-03-28T13:59:44.100Z,12.00
2023-03-28T14:02:31.077Z,12.00
2023-03-28T14:05:18.773Z,11.90
2023-03-28T14:07:45.943Z,11.90
2023-03-28T14:10:33.934Z,11.90
2023-03-28T14:13:13.420Z,11.90
2023-03-28T14:15:40.960Z,11.90
2023-03-28T14:18:17.446Z,11.70
2023-03-28T14:20:46.354Z,11.80
2023-03-28T14:23:38.051Z,11.80
2023-03-28T14:26:27.091Z,11.90
2023-03-28T14:29:00.584Z,12.00
2023-03-28T14:31:37.109Z,12.10
2023-03-28T14:34:23.894Z,12.00
2023-03-28T14:37:06.259Z,11.80
2023-03-28T14:39:35.681Z,11.80
2023-03-28T14:42:05.594Z,11.70
2023-03-28T14:44:37.377Z,11.60
2023-03-28T14:47:04.459Z,11.60
2023-03-28T14:49:31.569Z,11.70
2023-03-28T14:52:00.241Z,11.60
2023-03-28T14:54:34.804Z,11.70
2023-03-28T14:57:03.934Z,11.70
2023-03-28T14:59:46.510Z,11.80
2023-03-28T15:02:35.315Z,11.80
2023-03-28T15:05:07.716Z,11.70
2023-03-28T15:07:36.606Z,11.60
2023-03-28T15:10:04.462Z,11.50
2023-03-28T15:12:32.991Z,11.40
2023-03-28T15:15:01.856Z,11.40
2023-03-28T15:17:28.718Z,11.30
2023-03-28T15:19:59.277Z,11.40
2023-03-28T15:22:29.996Z,11.20
2023-03-28T15:24:57.631Z,11.30
2023-03-28T15:27:33.499Z,11.20
2023-03-28T15:30:23.239Z,11.20
2023-03-28T15:32:51.609Z,11.20
2023-03-28T15:35:40.411Z,11.10
2023-03-28T15:38:27.192Z,11.10
2023-03-28T15:41:07.973Z,11.10
2023-03-28T15:43:41.355Z,11.20
2023-03-28T15:46:15.322Z,11.30
2023-03-28T15:48:42.963Z,11.30
2023-03-28T15:51:18.345Z,11.40
2023-03-28T15:53:47.290Z,11.30
2023-03-28T15:56:30.676Z,11.20
2023-03-28T15:59:03.875Z,11.20
2023-03-28T16:01:33.272Z,11.10
2023-03-28T16:04:38.668Z,11.00
2023-03-28T16:07:12.385Z,10.90
2023-03-28T16:09:43.292Z,10.90
2023-03-28T16:12:15.180Z,10.90
2023-03-28T16:14:46.706Z,10.80
2023-03-28T16:22:08.732Z,10.80
2023-03-28T16:24:35.669Z,10.70
2023-03-28T16:27:02.914Z,10.80
2023-03-28T16:29:29.594Z,10.90
2023-03-28T16:34:23.402Z,10.90
2023-03-28T16:46:42.408Z,10.70
2023-03-28T16:56:31.353Z,10.40
2023-03-28T16:58:58.062Z,10.30
2023-03-28T17:01:24.934Z,10.40
2023-03-28T17:11:15.227Z,10.10
2023-03-28T17:13:42.912Z,10.10
2023-03-28T17:21:10.690Z,10.00
2023-03-28T17:23:38.726Z,10.00
2023-03-28T17:26:07.718Z,9.90
2023-03-28T17:28:39.058Z,9.90
2023-03-28T17:31:11.041Z,9.90
2023-03-28T17:36:22.294Z,9.70
2023-03-28T17:38:54.737Z,9.70
2023-03-28T17:41:24.880Z,9.60
2023-03-28T17:43:53.685Z,9.60
2023-03-28T17:48:48.897Z,9.50
2023-03-28T17:51:16.288Z,10.60
2023-03-28T17:53:44.546Z,9.50
2023-03-28T17:56:11.826Z,9.40
2023-03-28T17:58:38.626Z,9.40
2023-03-28T18:01:09.962Z,9.40
2023-03-28T18:03:39.061Z,9.30
2023-03-28T18:08:35.005Z,9.30
2023-03-28T18:11:07.340Z,9.30
2023-03-28T18:13:35.915Z,9.30
2023-03-28T18:18:33.499Z,9.30
2023-03-28T18:23:27.620Z,9.30
2023-03-28T18:25:54.361Z,9.40
2023-03-28T18:30:51.174Z,9.30
2023-03-28T18:33:19.154Z,9.30
2023-03-28T18:35:46.898Z,9.30
2023-03-28T18:40:41.956Z,9.20
2023-03-28T18:43:09.418Z,9.20
2023-03-28T18:57:53.019Z,9.20
2023-03-28T19:00:20.404Z,9.10
2023-03-28T19:02:49.067Z,9.00
2023-03-28T19:05:16.972Z,9.00
2023-03-28T19:10:29.906Z,8.80
2023-03-28T19:15:24.354Z,8.50
2023-03-28T19:20:18.545Z,8.30
2023-03-28T19:25:12.440Z,7.90
2023-03-28T19:27:39.171Z,7.80
2023-03-28T19:30:08.037Z,7.70
2023-03-28T19:32:34.755Z,7.60
2023-03-28T19:42:26.216Z,7.20
2023-03-28T19:44:53.224Z,7.20
2023-03-28T19:47:19.868Z,7.10
2023-03-28T19:54:40.989Z,6.90
2023-03-28T19:57:08.445Z,6.90
2023-03-28T20:02:02.481Z,6.80
2023-03-28T20:04:29.450Z,6.80
2023-03-28T20:06:56.214Z,6.80
2023-03-28T20:11:51.015Z,6.80
2023-03-28T20:26:39.860Z,6.70
2023-03-28T20:39:00.861Z,6.70
2023-03-28T20:41:29.894Z,6.70
2023-03-28T20:44:03.473Z,6.60
2023-03-28T20:46:32.378Z,6.60
2023-03-28T20:49:00.114Z,6.60
2023-03-28T20:51:29.635Z,6.60
2023-03-28T20:53:58.939Z,6.50
2023-03-28T20:56:28.965Z,6.50
2023-03-28T20:58:58.219Z,6.40
2023-03-28T21:01:27.983Z,6.40
2023-03-28T21:03:59.783Z,6.40
2023-03-28T21:06:33.583Z,6.40
2023-03-28T21:09:02.587Z,6.20
2023-03-28T21:11:31.753Z,6.30
2023-03-28T21:14:00.219Z,6.20
2023-03-28T21:16:27.668Z,6.30
2023-03-28T21:23:49.390Z,6.20
2023-03-28T21:26:21.336Z,6.20
2023-03-28T21:31:21.140Z,6.20
2023-03-28T21:33:49.029Z,6.20
2023-03-28T21:36:17.832Z,6.10
2023-03-28T21:41:13.087Z,6.20
2023-03-28T21:43:40.078Z,6.20
2023-03-28T21:46:08.091Z,6.10
2023-03-28T21:48:36.695Z,6.30
2023-03-28T21:53:33.731Z,6.20
2023-03-28T21:56:00.461Z,6.20
2023-03-28T21:58:30.829Z,6.20
2023-03-28T22:03:26.401Z,6.20
2023-03-28T22:05:54.441Z,6.20
2023-03-28T22:08:22.360Z,6.20
2023-03-28T22:10:54.664Z,6.30
2023-03-28T22:15:52.483Z,6.20
2023-03-28T22:18:20.280Z,6.30
2023-03-28T22:20:53.364Z,6.20
2023-03-28T22:23:24.335Z,6.20
2023-03-28T22:25:52.685Z,6.20
2023-03-28T22:28:23.996Z,6.20
2023-03-28T22:30:53.484Z,6.20
2023-03-28T22:35:48.179Z,6.10
2023-03-28T22:40:42.247Z,6.10
2023-03-28T22:43:09.033Z,6.10
2023-03-28T22:45:37.036Z,6.10
2023-03-28T22:48:04.004Z,6.00
2023-03-28T22:50:33.499Z,6.00
2023-03-28T22:53:02.285Z,6.00
2023-03-28T22:55:29.240Z,6.10
2023-03-28T22:57:55.992Z,6.00
2023-03-28T23:00:23.180Z,6.00
2023-03-28T23:02:53.652Z,6.00
2023-03-28T23:05:20.614Z,6.00
2023-03-28T23:07:47.668Z,5.90
2023-03-28T23:10:19.877Z,6.00
2023-03-28T23:12:48.581Z,5.90
2023-03-28T23:15:15.452Z,5.90
2023-03-28T23:17:42.780Z,5.90
2023-03-28T23:20:14.612Z,5.90
2023-03-28T23:22:43.099Z,5.90
2023-03-28T23:25:12.399Z,5.90
2023-03-28T23:27:39.732Z,5.90
2023-03-28T23:30:07.644Z,5.80
2023-03-28T23:32:34.505Z,5.80
2023-03-28T23:35:01.491Z,5.90
2023-03-28T23:37:28.706Z,5.90
2023-03-28T23:39:56.354Z,5.90
2023-03-28T23:42:24.351Z,5.80
2023-03-28T23:44:51.821Z,5.80
2023-03-28T23:47:20.292Z,5.80
2023-03-28T23:49:47.443Z,5.80
2023-03-28T23:52:14.305Z,5.80
2023-03-28T23:54:41.114Z,5.80
2023-03-28T23:57:08.872Z,5.80
2023-03-28T23:59:36.423Z,5.80
